createdAt,value
2023-05-06T00:00:05.800Z,13.40
2023-05-06T00:02:44.072Z,11.10
2023-05-06T00:05:17.821Z,12.32
2023-05-06T00:07:50.813Z,11.05
2023-05-06T00:10:23.327Z,11.15
2023-05-06T00:12:55.607Z,15.30
2023-05-06T00:15:30.133Z,10.48
2023-05-06T00:18:04.068Z,11.05
2023-05-06T00:20:36.459Z,11.32
2023-05-06T00:23:10.302Z,13.25
2023-05-06T00:25:42.680Z,10.77
2023-05-06T00:28:14.992Z,10.50
2023-05-06T00:30:47.352Z,10.30
2023-05-06T00:33:19.702Z,8.38
2023-05-06T00:35:52.008Z,10.18
2023-05-06T00:38:25.377Z,10.45
2023-05-06T00:40:57.694Z,9.75
2023-05-06T00:43:30.848Z,10.43
2023-05-06T00:46:03.238Z,8.63
2023-05-06T00:48:35.984Z,10.80
2023-05-06T00:51:08.433Z,9.68
2023-05-06T00:53:41.491Z,8.45
2023-05-06T00:56:13.878Z,9.63
2023-05-06T00:58:46.162Z,9.40
2023-05-06T01:01:18.761Z,10.77
2023-05-06T01:03:56.338Z,6.90
2023-05-06T01:06:35.695Z,7.07
2023-05-06T01:09:15.961Z,12.52
2023-05-06T01:11:52.683Z,8.60
2023-05-06T01:14:32.724Z,10.85
2023-05-06T01:17:10.505Z,10.52
2023-05-06T01:19:45.983Z,10.40
2023-05-06T01:22:19.733Z,9.82
2023-05-06T01:24:52.736Z,11.48
2023-05-06T01:27:28.485Z,12.13
2023-05-06T01:30:01.797Z,12.02
2023-05-06T01:32:46.018Z,10.43
2023-05-06T01:35:23.988Z,10.70
2023-05-06T01:38:06.400Z,12.93
2023-05-06T01:40:40.839Z,12.45
2023-05-06T01:43:14.993Z,9.27
2023-05-06T01:45:52.719Z,8.70
2023-05-06T01:48:27.885Z,10.02
2023-05-06T01:51:01.409Z,9.98
2023-05-06T01:53:33.752Z,11.00
2023-05-06T01:56:07.342Z,11.13
2023-05-06T01:58:39.700Z,14.07
2023-05-06T02:01:12.067Z,15.80
2023-05-06T02:03:45.744Z,10.10
2023-05-06T02:06:18.421Z,9.95
2023-05-06T02:08:52.045Z,9.15
2023-05-06T02:11:28.529Z,11.82
2023-05-06T02:14:07.367Z,9.40
2023-05-06T02:16:40.651Z,8.95
2023-05-06T02:19:12.932Z,10.57
2023-05-06T02:21:45.200Z,8.80
2023-05-06T02:24:17.513Z,10.85
2023-05-06T02:26:50.474Z,10.45
2023-05-06T02:29:22.882Z,10.25
2023-05-06T02:31:55.433Z,12.00
2023-05-06T02:34:27.769Z,14.65
2023-05-06T02:37:00.056Z,9.10
2023-05-06T02:39:32.835Z,10.15
2023-05-06T02:42:06.555Z,7.57
2023-05-06T02:44:38.878Z,7.68
2023-05-06T02:47:29.775Z,7.97
2023-05-06T02:50:02.967Z,9.68
2023-05-06T02:52:37.073Z,8.88
2023-05-06T02:55:09.989Z,10.55
2023-05-06T02:57:43.685Z,11.32
2023-05-06T03:00:16.406Z,9.55
2023-05-06T03:02:48.785Z,10.23
2023-05-06T03:05:21.082Z,12.25
2023-05-06T03:07:53.470Z,16.27
2023-05-06T03:10:26.920Z,10.23
2023-05-06T03:13:01.332Z,8.75
2023-05-06T03:15:34.461Z,10.60
2023-05-06T03:18:06.853Z,10.32
2023-05-06T03:20:39.291Z,10.88
2023-05-06T03:23:11.596Z,17.02
2023-05-06T03:25:43.990Z,12.00
2023-05-06T03:28:16.994Z,9.00
2023-05-06T03:30:51.299Z,10.85
2023-05-06T03:33:23.653Z,10.98
2023-05-06T03:35:56.123Z,9.95
2023-05-06T03:38:28.590Z,12.25
2023-05-06T03:41:06.469Z,11.80
2023-05-06T03:43:39.487Z,10.88
2023-05-06T03:46:12.043Z,12.57
2023-05-06T03:48:45.009Z,10.68
2023-05-06T03:51:20.366Z,11.57
2023-05-06T03:53:54.737Z,15.15
2023-05-06T03:56:27.807Z,13.25
2023-05-06T03:59:02.984Z,12.45
2023-05-06T04:01:35.500Z,12.60
2023-05-06T04:04:07.948Z,14.13
2023-05-06T04:06:40.649Z,10.75
2023-05-06T04:09:13.711Z,14.27
2023-05-06T04:11:46.157Z,12.95
2023-05-06T04:14:21.984Z,13.77
2023-05-06T04:16:54.754Z,12.55
2023-05-06T04:19:27.377Z,14.32
2023-05-06T04:21:59.739Z,16.27
2023-05-06T04:24:33.168Z,11.10
2023-05-06T04:27:05.772Z,14.18
2023-05-06T04:29:38.914Z,14.63
2023-05-06T04:32:11.215Z,14.23
2023-05-06T04:34:44.059Z,15.52
2023-05-06T04:37:20.428Z,12.23
2023-05-06T04:39:57.345Z,13.68
2023-05-06T04:42:29.721Z,9.90
2023-05-06T04:45:13.148Z,11.48
2023-05-06T04:47:49.659Z,9.90
2023-05-06T04:50:23.735Z,18.20
2023-05-06T04:52:57.613Z,11.82
2023-05-06T04:55:30.114Z,14.02
2023-05-06T04:58:02.491Z,18.23
2023-05-06T05:00:35.664Z,16.80
2023-05-06T05:03:09.725Z,14.98
2023-05-06T05:05:42.133Z,15.10
2023-05-06T05:08:20.771Z,15.82
2023-05-06T05:10:53.157Z,8.02
2023-05-06T05:13:28.281Z,10.65
2023-05-06T05:16:02.532Z,12.77
2023-05-06T05:18:37.576Z,9.85
2023-05-06T05:21:17.265Z,7.53
2023-05-06T05:23:49.639Z,11.82
2023-05-06T05:26:22.013Z,7.60
2023-05-06T05:28:56.730Z,8.43
2023-05-06T05:31:30.685Z,9.93
2023-05-06T05:34:03.104Z,9.27
2023-05-06T05:36:35.521Z,6.85
2023-05-06T05:39:10.850Z,7.55
2023-05-06T05:41:48.990Z,10.95
2023-05-06T05:44:21.495Z,9.50
2023-05-06T05:46:54.815Z,9.57
2023-05-06T05:49:27.334Z,8.18
2023-05-06T05:51:59.680Z,9.35
2023-05-06T05:54:33.071Z,8.13
2023-05-06T05:57:05.390Z,9.43
2023-05-06T05:59:38.296Z,12.15
2023-05-06T06:02:12.859Z,8.15
2023-05-06T06:04:45.337Z,7.55
2023-05-06T06:07:17.830Z,9.88
2023-05-06T06:09:51.072Z,7.63
2023-05-06T06:12:23.622Z,9.07
2023-05-06T06:14:56.005Z,8.90
2023-05-06T06:17:30.995Z,14.88
2023-05-06T06:20:05.286Z,11.00
2023-05-06T06:22:37.673Z,12.82
2023-05-06T06:25:10.413Z,9.65
2023-05-06T06:27:43.250Z,9.98
2023-05-06T06:30:16.311Z,9.48
2023-05-06T06:32:50.727Z,10.43
2023-05-06T06:35:23.133Z,10.98
2023-05-06T06:37:56.255Z,9.98
2023-05-06T06:40:28.673Z,10.30
2023-05-06T06:43:01.491Z,11.23
2023-05-06T06:46:03.071Z,8.18
2023-05-06T06:48:36.069Z,9.15
2023-05-06T06:51:08.346Z,8.50
2023-05-06T06:53:40.668Z,10.68
2023-05-06T06:56:13.052Z,15.00
2023-05-06T06:58:45.387Z,10.63
2023-05-06T07:01:17.796Z,10.63
2023-05-06T07:03:50.818Z,8.77
2023-05-06T07:06:23.151Z,11.45
2023-05-06T07:08:55.723Z,9.90
2023-05-06T07:11:28.233Z,10.95
2023-05-06T07:14:00.951Z,9.10
2023-05-06T07:16:33.574Z,10.07
2023-05-06T07:19:06.545Z,11.75
2023-05-06T07:21:38.865Z,12.05
2023-05-06T07:24:11.248Z,10.88
2023-05-06T07:26:43.674Z,8.50
2023-05-06T07:29:16.183Z,9.82
2023-05-06T07:31:48.557Z,9.32
2023-05-06T07:34:21.724Z,8.82
2023-05-06T07:36:54.057Z,7.10
2023-05-06T07:39:26.413Z,8.63
2023-05-06T07:41:58.691Z,9.20
2023-05-06T07:44:31.074Z,7.32
2023-05-06T07:47:03.502Z,10.07
2023-05-06T07:49:36.628Z,8.02
2023-05-06T07:52:08.974Z,5.43
2023-05-06T07:54:41.266Z,14.75
2023-05-06T07:57:13.728Z,8.32
2023-05-06T07:59:48.004Z,8.65
2023-05-06T08:02:20.388Z,6.95
2023-05-06T08:04:53.565Z,6.00
2023-05-06T08:07:25.946Z,7.90
2023-05-06T08:09:58.426Z,7.57
2023-05-06T08:12:30.985Z,7.28
2023-05-06T08:15:03.855Z,6.45
2023-05-06T08:17:36.898Z,8.82
2023-05-06T08:20:11.064Z,7.30
2023-05-06T08:22:43.358Z,10.43
2023-05-06T08:25:16.388Z,6.75
2023-05-06T08:27:48.669Z,6.53
2023-05-06T08:30:21.052Z,7.10
2023-05-06T08:32:53.414Z,6.57
2023-05-06T08:35:26.495Z,6.38
2023-05-06T08:37:58.831Z,8.85
2023-05-06T08:40:32.956Z,6.57
2023-05-06T08:43:06.271Z,8.30
2023-05-06T08:45:38.695Z,7.28
2023-05-06T08:48:11.201Z,8.55
2023-05-06T08:50:44.205Z,8.98
2023-05-06T08:53:16.714Z,7.72
2023-05-06T08:55:51.326Z,7.60
2023-05-06T08:58:25.863Z,9.57
2023-05-06T09:00:59.458Z,8.60
2023-05-06T09:03:31.856Z,9.32
2023-05-06T09:06:05.289Z,11.20
2023-05-06T09:08:37.632Z,8.10
2023-05-06T09:11:21.265Z,7.38
2023-05-06T09:14:08.594Z,6.35
2023-05-06T09:16:43.130Z,7.35
2023-05-06T09:19:16.932Z,7.60
2023-05-06T09:21:51.324Z,7.50
2023-05-06T09:24:24.062Z,8.23
2023-05-06T09:26:56.410Z,7.13
2023-05-06T09:29:28.697Z,11.02
2023-05-06T09:32:07.365Z,6.43
2023-05-06T09:34:45.680Z,8.80
2023-05-06T09:37:20.264Z,6.88
2023-05-06T09:39:55.281Z,7.35
2023-05-06T09:42:29.180Z,5.43
2023-05-06T09:45:02.486Z,5.82
2023-05-06T09:47:37.469Z,4.88
2023-05-06T09:50:13.186Z,8.52
2023-05-06T09:52:48.107Z,6.05
2023-05-06T09:55:21.738Z,5.75
2023-05-06T09:57:54.908Z,5.53
2023-05-06T10:00:29.872Z,6.68
2023-05-06T10:03:04.213Z,5.85
2023-05-06T10:05:37.140Z,4.75
2023-05-06T10:08:12.477Z,4.78
2023-05-06T10:10:46.357Z,5.70
2023-05-06T10:13:20.222Z,5.15
2023-05-06T10:15:53.112Z,6.88
2023-05-06T10:18:26.613Z,5.47
2023-05-06T10:21:00.002Z,8.18
2023-05-06T10:23:42.824Z,7.97
2023-05-06T10:26:17.343Z,5.45
2023-05-06T10:28:53.088Z,4.90
2023-05-06T10:31:27.064Z,9.73
2023-05-06T10:34:03.406Z,5.63
2023-05-06T10:36:37.162Z,6.90
2023-05-06T10:39:13.004Z,8.63
2023-05-06T10:41:45.482Z,5.85
2023-05-06T10:44:17.811Z,6.70
2023-05-06T10:46:58.295Z,4.90
2023-05-06T10:49:30.648Z,8.05
2023-05-06T10:52:11.679Z,5.80
2023-05-06T10:54:51.332Z,5.47
2023-05-06T10:57:26.084Z,5.38
2023-05-06T10:59:58.519Z,7.35
2023-05-06T11:02:30.921Z,4.57
2023-05-06T11:05:05.089Z,6.43
2023-05-06T11:07:37.549Z,4.43
2023-05-06T11:10:11.371Z,4.40
2023-05-06T11:12:48.620Z,4.85
2023-05-06T11:15:25.757Z,5.05
2023-05-06T11:17:58.214Z,4.30
2023-05-06T11:20:30.696Z,3.83
2023-05-06T11:23:03.003Z,4.68
2023-05-06T11:25:42.977Z,3.75
2023-05-06T11:28:15.453Z,3.55
2023-05-06T11:30:54.940Z,3.58
2023-05-06T11:33:32.608Z,3.67
2023-05-06T11:36:05.960Z,3.63
2023-05-06T11:38:42.156Z,3.67
2023-05-06T11:41:15.924Z,3.15
2023-05-06T11:43:49.553Z,5.60
2023-05-06T11:46:24.280Z,5.05
2023-05-06T11:48:56.633Z,4.07
2023-05-06T11:51:28.925Z,2.97
2023-05-06T11:54:09.333Z,4.85
2023-05-06T11:56:46.891Z,3.80
2023-05-06T11:59:30.850Z,6.10
2023-05-06T12:02:05.020Z,3.33
2023-05-06T12:04:39.070Z,3.80
2023-05-06T12:07:13.445Z,4.00
2023-05-06T12:09:47.602Z,7.50
2023-05-06T12:12:23.620Z,4.68
2023-05-06T12:14:56.457Z,3.45
2023-05-06T12:17:28.898Z,3.60
2023-05-06T12:20:02.307Z,3.33
2023-05-06T12:22:34.649Z,5.72
2023-05-06T12:25:15.130Z,3.15
2023-05-06T12:27:48.138Z,4.60
2023-05-06T12:30:29.291Z,3.42
2023-05-06T12:33:02.188Z,5.07
2023-05-06T12:35:35.055Z,4.20
2023-05-06T12:38:08.615Z,6.00
2023-05-06T12:40:42.562Z,4.25
2023-05-06T12:43:15.725Z,2.88
2023-05-06T12:46:03.125Z,3.65
2023-05-06T12:48:35.633Z,3.08
2023-05-06T12:51:17.693Z,6.25
2023-05-06T12:53:50.113Z,5.80
2023-05-06T12:56:22.436Z,3.65
2023-05-06T12:58:59.387Z,3.40
2023-05-06T13:01:32.581Z,3.90
2023-05-06T13:04:05.153Z,2.22
2023-05-06T13:06:37.458Z,4.20
2023-05-06T13:09:10.082Z,3.70
2023-05-06T13:11:42.355Z,5.97
2023-05-06T13:14:15.684Z,3.67
2023-05-06T13:16:48.762Z,3.22
2023-05-06T13:19:39.925Z,5.47
2023-05-06T13:22:17.339Z,3.92
2023-05-06T13:24:50.026Z,4.43
2023-05-06T13:27:22.359Z,4.80
2023-05-06T13:29:55.248Z,3.92
2023-05-06T13:32:27.579Z,4.80
2023-05-06T13:34:59.877Z,3.33
2023-05-06T13:37:32.365Z,4.15
2023-05-06T13:40:05.958Z,4.30
2023-05-06T13:42:38.260Z,2.88
2023-05-06T13:45:11.422Z,4.00
2023-05-06T13:47:43.759Z,3.75
2023-05-06T13:50:16.150Z,4.68
2023-05-06T13:52:48.402Z,3.13
2023-05-06T13:55:20.680Z,5.90
2023-05-06T13:57:52.977Z,7.63
2023-05-06T14:00:26.210Z,2.72
2023-05-06T14:02:58.616Z,5.75
2023-05-06T14:05:31.758Z,4.90
2023-05-06T14:08:04.316Z,4.97
2023-05-06T14:10:36.576Z,6.07
2023-05-06T14:13:09.090Z,4.63
2023-05-06T14:15:42.328Z,3.83
2023-05-06T14:18:15.114Z,6.05
2023-05-06T14:20:47.444Z,4.07
2023-05-06T14:23:19.806Z,3.88
2023-05-06T14:25:52.133Z,3.92
2023-05-06T14:28:24.425Z,2.53
2023-05-06T14:30:58.862Z,4.10
2023-05-06T14:33:31.145Z,3.30
2023-05-06T14:36:03.842Z,3.83
2023-05-06T14:38:36.230Z,3.40
2023-05-06T14:41:08.518Z,3.42
2023-05-06T14:43:40.928Z,3.00
2023-05-06T14:46:15.186Z,8.25
2023-05-06T14:48:47.521Z,4.63
2023-05-06T14:51:19.824Z,5.13
2023-05-06T14:53:52.114Z,4.35
2023-05-06T14:56:24.408Z,3.70
2023-05-06T14:58:56.649Z,3.58
2023-05-06T15:01:31.458Z,4.22
2023-05-06T15:04:04.156Z,3.13
2023-05-06T15:06:36.649Z,4.57
2023-05-06T15:09:09.615Z,4.32
2023-05-06T15:11:41.964Z,3.40
2023-05-06T15:14:14.261Z,3.03
2023-05-06T15:16:47.229Z,2.70
2023-05-06T15:19:19.547Z,4.05
2023-05-06T15:21:51.816Z,3.85
2023-05-06T15:24:24.173Z,5.20
2023-05-06T15:26:56.529Z,3.88
2023-05-06T15:29:28.883Z,3.33
2023-05-06T15:32:02.047Z,1.83
2023-05-06T15:34:34.460Z,3.00
2023-05-06T15:37:07.326Z,4.50
2023-05-06T15:39:39.774Z,5.30
2023-05-06T15:42:12.066Z,3.08
2023-05-06T15:44:47.187Z,4.60
2023-05-06T15:47:20.586Z,4.57
2023-05-06T15:49:55.022Z,3.92
2023-05-06T15:52:27.873Z,3.95
2023-05-06T15:55:01.061Z,5.70
2023-05-06T15:57:33.382Z,6.85
2023-05-06T16:00:07.702Z,5.70
2023-05-06T16:02:40.830Z,4.35
2023-05-06T16:05:13.384Z,5.85
2023-05-06T16:07:45.721Z,3.65
2023-05-06T16:10:18.045Z,3.70
2023-05-06T16:12:50.366Z,2.97
2023-05-06T16:15:22.680Z,2.50
2023-05-06T16:17:55.670Z,4.95
2023-05-06T16:20:28.938Z,8.32
2023-05-06T16:23:02.122Z,3.92
2023-05-06T16:25:37.029Z,4.47
2023-05-06T16:28:09.342Z,4.93
2023-05-06T16:30:45.590Z,4.40
2023-05-06T16:33:18.567Z,6.70
2023-05-06T16:35:51.074Z,4.13
2023-05-06T16:38:24.057Z,3.78
2023-05-06T16:40:56.402Z,3.13
2023-05-06T16:43:28.685Z,2.78
2023-05-06T16:46:01.487Z,2.53
2023-05-06T16:48:34.570Z,5.88
2023-05-06T16:51:07.064Z,5.40
2023-05-06T16:53:39.339Z,3.75
2023-05-06T16:56:12.301Z,2.83
2023-05-06T16:58:44.575Z,6.20
2023-05-06T17:01:16.990Z,4.22
2023-05-06T17:03:50.224Z,3.00
2023-05-06T17:06:29.037Z,4.07
2023-05-06T17:09:01.381Z,3.77
2023-05-06T17:11:33.726Z,4.63
2023-05-06T17:14:06.003Z,3.35
2023-05-06T17:16:38.588Z,3.67
2023-05-06T17:19:11.905Z,8.27
2023-05-06T17:21:44.250Z,3.40
2023-05-06T17:24:16.547Z,3.90
2023-05-06T17:26:48.887Z,4.68
2023-05-06T17:29:21.476Z,6.43
2023-05-06T17:31:53.759Z,3.13
2023-05-06T17:34:26.690Z,5.60
2023-05-06T17:36:59.424Z,5.20
2023-05-06T17:39:32.601Z,3.22
2023-05-06T17:42:04.980Z,6.22
2023-05-06T17:44:38.642Z,4.20
2023-05-06T17:47:11.047Z,4.93
2023-05-06T17:49:44.919Z,4.47
2023-05-06T17:52:17.399Z,5.13
2023-05-06T17:55:05.747Z,4.18
2023-05-06T17:57:42.277Z,7.32
2023-05-06T18:00:16.054Z,4.43
2023-05-06T18:02:48.526Z,4.75
2023-05-06T18:05:23.927Z,6.55
2023-05-06T18:07:56.199Z,4.38
2023-05-06T18:10:28.810Z,5.32
2023-05-06T18:13:01.349Z,5.47
2023-05-06T18:15:33.689Z,5.25
2023-05-06T18:18:06.101Z,8.27
2023-05-06T18:20:39.992Z,4.78
2023-05-06T18:23:12.276Z,6.90
2023-05-06T18:25:44.739Z,5.68
2023-05-06T18:28:17.116Z,6.28
2023-05-06T18:30:49.524Z,5.05
2023-05-06T18:33:21.886Z,3.92
2023-05-06T18:35:54.877Z,6.72
2023-05-06T18:38:27.230Z,5.07
2023-05-06T18:41:01.744Z,6.93
2023-05-06T18:43:34.038Z,6.35
2023-05-06T18:46:06.461Z,4.18
2023-05-06T18:48:38.848Z,5.22
2023-05-06T18:51:13.102Z,4.55
2023-05-06T18:53:45.563Z,8.40
2023-05-06T18:56:17.960Z,4.60
2023-05-06T18:58:50.259Z,5.38
2023-05-06T19:01:22.644Z,5.22
2023-05-06T19:03:55.776Z,5.25
2023-05-06T19:06:30.771Z,7.07
2023-05-06T19:09:03.199Z,7.20
2023-05-06T19:11:35.604Z,4.70
2023-05-06T19:14:08.061Z,5.15
2023-05-06T19:16:40.437Z,7.38
2023-05-06T19:19:12.764Z,4.15
2023-05-06T19:21:45.722Z,5.55
2023-05-06T19:24:17.994Z,5.00
2023-05-06T19:26:50.624Z,4.65
2023-05-06T19:29:22.962Z,7.20
2023-05-06T19:31:55.259Z,5.80
2023-05-06T19:34:27.539Z,3.67
2023-05-06T19:37:01.057Z,5.93
2023-05-06T19:39:33.364Z,4.20
2023-05-06T19:42:06.176Z,5.45
2023-05-06T19:44:38.482Z,5.07
2023-05-06T19:47:11.742Z,4.07
2023-05-06T19:49:44.138Z,4.72
2023-05-06T19:52:17.346Z,4.47
2023-05-06T19:54:50.039Z,4.07
2023-05-06T19:57:23.383Z,4.35
2023-05-06T19:59:56.079Z,5.10
2023-05-06T20:02:28.419Z,4.25
2023-05-06T20:05:01.110Z,3.60
2023-05-06T20:07:34.058Z,5.10
2023-05-06T20:10:09.222Z,5.95
2023-05-06T20:12:41.631Z,4.88
2023-05-06T20:15:13.960Z,5.95
2023-05-06T20:17:46.389Z,5.22
2023-05-06T20:20:19.138Z,4.57
2023-05-06T20:22:52.127Z,5.47
2023-05-06T20:25:24.370Z,4.60
2023-05-06T20:27:57.435Z,4.43
2023-05-06T20:30:29.858Z,5.35
2023-05-06T20:33:02.278Z,3.67
2023-05-06T20:35:37.478Z,4.38
2023-05-06T20:38:10.825Z,6.00
2023-05-06T20:40:43.108Z,3.85
2023-05-06T20:43:15.476Z,7.63
2023-05-06T20:45:47.814Z,4.95
2023-05-06T20:48:20.271Z,6.57
2023-05-06T20:50:53.450Z,3.72
2023-05-06T20:53:26.637Z,3.80
2023-05-06T20:55:59.252Z,3.00
2023-05-06T20:58:31.575Z,2.67
2023-05-06T21:01:03.935Z,4.60
2023-05-06T21:03:36.305Z,3.50
2023-05-06T21:06:09.114Z,4.53
2023-05-06T21:08:42.576Z,2.72
2023-05-06T21:11:15.026Z,3.03
2023-05-06T21:13:48.297Z,2.70
2023-05-06T21:16:22.389Z,4.25
2023-05-06T21:18:54.708Z,4.18
2023-05-06T21:21:30.205Z,7.13
2023-05-06T21:24:03.454Z,3.55
2023-05-06T21:26:35.822Z,3.70
2023-05-06T21:29:08.103Z,9.13
2023-05-06T21:31:40.535Z,11.45
2023-05-06T21:34:13.004Z,6.55
2023-05-06T21:36:45.397Z,7.53
2023-05-06T21:39:18.434Z,5.82
2023-05-06T21:41:50.705Z,5.55
2023-05-06T21:44:22.987Z,7.70
2023-05-06T21:46:55.323Z,7.07
2023-05-06T21:49:27.657Z,8.07
2023-05-06T21:51:59.929Z,6.75
2023-05-06T21:54:33.277Z,7.57
2023-05-06T21:57:07.347Z,6.25
2023-05-06T21:59:39.651Z,8.00
2023-05-06T22:02:12.127Z,4.75
2023-05-06T22:04:44.488Z,5.65
2023-05-06T22:07:16.854Z,7.57
2023-05-06T22:09:49.871Z,6.22
2023-05-06T22:12:22.177Z,6.07
2023-05-06T22:14:54.482Z,7.28
2023-05-06T22:17:26.781Z,8.35
2023-05-06T22:20:01.643Z,9.25
2023-05-06T22:22:34.502Z,8.07
2023-05-06T22:25:09.240Z,8.77
2023-05-06T22:27:41.790Z,9.57
2023-05-06T22:30:15.483Z,7.70
2023-05-06T22:32:47.865Z,10.20
2023-05-06T22:35:20.198Z,5.05
2023-05-06T22:37:52.557Z,7.82
2023-05-06T22:40:27.148Z,6.75
2023-05-06T22:42:59.391Z,8.15
2023-05-06T22:45:31.825Z,8.82
2023-05-06T22:48:04.826Z,7.35
2023-05-06T22:50:37.435Z,7.13
2023-05-06T22:53:15.140Z,6.65
2023-05-06T22:55:48.526Z,7.70
2023-05-06T22:58:20.823Z,5.30
2023-05-06T23:00:53.833Z,7.07
2023-05-06T23:03:26.214Z,8.27
2023-05-06T23:05:58.528Z,7.50
2023-05-06T23:08:30.826Z,7.25
2023-05-06T23:11:03.762Z,11.68
2023-05-06T23:13:36.332Z,6.15
2023-05-06T23:16:09.543Z,6.57
2023-05-06T23:18:42.092Z,8.60
2023-05-06T23:21:14.442Z,8.65
2023-05-06T23:23:46.777Z,7.00
2023-05-06T23:26:20.080Z,6.95
2023-05-06T23:28:52.368Z,7.38
2023-05-06T23:31:24.854Z,8.48
2023-05-06T23:33:57.227Z,5.72
2023-05-06T23:36:30.109Z,8.70
2023-05-06T23:39:02.670Z,6.80
2023-05-06T23:41:35.673Z,19.35
2023-05-06T23:44:07.954Z,11.77
2023-05-06T23:46:40.254Z,7.10
2023-05-06T23:49:12.633Z,7.32
2023-05-06T23:51:44.929Z,9.27
2023-05-06T23:54:17.226Z,7.28
2023-05-06T23:56:50.129Z,7.32
2023-05-06T23:59:22.437Z,7.32
